sensor_id;sensor_type;location;lat;lon;timestamp;pressure;altitude;pressure_sealevel;temperature;humidity
63946;BME280;50122;56.330;43.838;2022-12-16T00:01:22;101328.47;;;-4.89;79.99
63946;BME280;50122;56.330;43.838;2022-12-16T00:03:51;101330.38;;;-4.83;80.13
63946;BME280;50122;56.330;43.838;2022-12-16T00:06:22;101326.28;;;-4.78;80.01
63946;BME280;50122;56.330;43.838;2022-12-16T00:08:49;101328.81;;;-4.79;79.91
63946;BME280;50122;56.330;43.838;2022-12-16T00:11:17;101333.13;;;-4.78;79.96
63946;BME280;50122;56.330;43.838;2022-12-16T00:13:45;101327.97;;;-4.78;79.69
63946;BME280;50122;56.330;43.838;2022-12-16T00:16:16;101325.44;;;-4.77;79.89
63946;BME280;50122;56.330;43.838;2022-12-16T00:18:43;101322.84;;;-4.77;79.83
63946;BME280;50122;56.330;43.838;2022-12-16T00:21:10;101305.56;;;-4.81;80.10
63946;BME280;50122;56.330;43.838;2022-12-16T00:23:37;101312.38;;;-4.81;80.08
63946;BME280;50122;56.330;43.838;2022-12-16T00:26:04;101318.44;;;-4.81;80.47
63946;BME280;50122;56.330;43.838;2022-12-16T00:28:31;101319.22;;;-4.83;80.80
63946;BME280;50122;56.330;43.838;2022-12-16T00:30:59;101308.78;;;-4.86;80.64
63946;BME280;50122;56.330;43.838;2022-12-16T00:33:26;101305.22;;;-4.90;80.86
63946;BME280;50122;56.330;43.838;2022-12-16T00:35:53;101312.34;;;-4.83;81.21
63946;BME280;50122;56.330;43.838;2022-12-16T00:38:22;101308.94;;;-4.82;81.09
63946;BME280;50122;56.330;43.838;2022-12-16T00:40:49;101309.84;;;-4.80;80.71
63946;BME280;50122;56.330;43.838;2022-12-16T00:43:17;101309.00;;;-4.80;80.58
63946;BME280;50122;56.330;43.838;2022-12-16T00:45:46;101308.13;;;-4.81;80.73
63946;BME280;50122;56.330;43.838;2022-12-16T00:48:13;101309.84;;;-4.80;80.36
63946;BME280;50122;56.330;43.838;2022-12-16T00:50:40;101312.44;;;-4.80;79.85
63946;BME280;50122;56.330;43.838;2022-12-16T00:53:08;101300.34;;;-4.82;80.35
63946;BME280;50122;56.330;43.838;2022-12-16T00:55:35;101299.53;;;-4.80;80.06
63946;BME280;50122;56.330;43.838;2022-12-16T00:58:01;101299.66;;;-4.77;79.98
63946;BME280;50122;56.330;43.838;2022-12-16T01:00:29;101279.91;;;-4.76;80.04
63946;BME280;50122;56.330;43.838;2022-12-16T01:02:55;101274.59;;;-4.81;79.74
63946;BME280;50122;56.330;43.838;2022-12-16T01:05:23;101271.28;;;-4.77;79.93
63946;BME280;50122;56.330;43.838;2022-12-16T01:07:53;101248.47;;;-4.90;79.36
63946;BME280;50122;56.330;43.838;2022-12-16T01:10:22;101250.78;;;-4.74;79.71
63946;BME280;50122;56.330;43.838;2022-12-16T01:12:50;101243.75;;;-4.78;79.25
63946;BME280;50122;56.330;43.838;2022-12-16T01:15:18;101237.75;;;-4.77;79.27
63946;BME280;50122;56.330;43.838;2022-12-16T01:17:45;101229.97;;;-4.78;79.13
63946;BME280;50122;56.330;43.838;2022-12-16T01:20:12;101242.16;;;-4.74;79.22
63946;BME280;50122;56.330;43.838;2022-12-16T01:22:40;101231.78;;;-4.76;79.17
63946;BME280;50122;56.330;43.838;2022-12-16T01:25:09;101233.59;;;-4.73;79.04
63946;BME280;50122;56.330;43.838;2022-12-16T01:27:36;101232.03;;;-4.68;78.45
63946;BME280;50122;56.330;43.838;2022-12-16T01:30:04;101231.34;;;-4.62;78.13
63946;BME280;50122;56.330;43.838;2022-12-16T01:32:31;101237.41;;;-4.62;77.91
63946;BME280;50122;56.330;43.838;2022-12-16T01:34:57;101223.63;;;-4.62;77.70
63946;BME280;50122;56.330;43.838;2022-12-16T01:37:24;101215.88;;;-4.62;77.64
63946;BME280;50122;56.330;43.838;2022-12-16T01:39:51;101203.72;;;-4.66;77.54
63946;BME280;50122;56.330;43.838;2022-12-16T01:42:19;101190.38;;;-4.80;77.70
63946;BME280;50122;56.330;43.838;2022-12-16T01:44:48;101206.31;;;-4.66;78.12
63946;BME280;50122;56.330;43.838;2022-12-16T01:47:22;101190.50;;;-4.76;77.68
63946;BME280;50122;56.330;43.838;2022-12-16T01:50:03;101196.00;;;-4.66;78.00
63946;BME280;50122;56.330;43.838;2022-12-16T01:52:38;101175.19;;;-4.71;78.12
63946;BME280;50122;56.330;43.838;2022-12-16T01:55:11;101190.03;;;-4.64;78.04
63946;BME280;50122;56.330;43.838;2022-12-16T01:57:44;101191.66;;;-4.67;77.95
63946;BME280;50122;56.330;43.838;2022-12-16T02:00:13;101179.53;;;-4.70;77.70
63946;BME280;50122;56.330;43.838;2022-12-16T02:02:42;101185.72;;;-4.65;78.28
63946;BME280;50122;56.330;43.838;2022-12-16T02:05:12;101185.72;;;-4.65;79.03
63946;BME280;50122;56.330;43.838;2022-12-16T02:08:14;101184.81;;;-4.65;79.36
63946;BME280;50122;56.330;43.838;2022-12-16T02:19:09;101158.03;;;-4.71;81.28
63946;BME280;50122;56.330;43.838;2022-12-16T02:41:42;101114.59;;;-4.84;85.45
63946;BME280;50122;56.330;43.838;2022-12-16T02:44:15;101113.88;;;-4.80;85.74
63946;BME280;50122;56.330;43.838;2022-12-16T02:46:51;101115.72;;;-4.76;85.98
63946;BME280;50122;56.330;43.838;2022-12-16T16:59:39;101793.75;;;-4.62;75.41
63946;BME280;50122;56.330;43.838;2022-12-16T17:02:25;101818.25;;;-4.53;75.94
63946;BME280;50122;56.330;43.838;2022-12-16T17:05:11;101809.25;;;-4.41;75.98
63946;BME280;50122;56.330;43.838;2022-12-16T17:08:01;101823.00;;;-4.21;75.21
63946;BME280;50122;56.330;43.838;2022-12-16T17:10:46;101792.13;;;-4.39;74.90
63946;BME280;50122;56.330;43.838;2022-12-16T17:13:32;101826.00;;;-4.10;74.29
63946;BME280;50122;56.330;43.838;2022-12-16T17:16:17;101827.88;;;-4.06;74.34
63946;BME280;50122;56.330;43.838;2022-12-16T17:19:02;101824.31;;;-4.10;74.05
63946;BME280;50122;56.330;43.838;2022-12-16T17:21:48;101833.06;;;-4.06;74.51
63946;BME280;50122;56.330;43.838;2022-12-16T17:24:47;101823.75;;;-4.03;74.30
63946;BME280;50122;56.330;43.838;2022-12-16T17:27:32;101834.09;;;-4.03;74.33
63946;BME280;50122;56.330;43.838;2022-12-16T17:30:20;101841.94;;;-3.99;74.02
63946;BME280;50122;56.330;43.838;2022-12-16T17:33:13;101822.16;;;-3.99;73.75
63946;BME280;50122;56.330;43.838;2022-12-16T17:36:03;101813.38;;;-4.04;74.25
63946;BME280;50122;56.330;43.838;2022-12-16T17:38:55;101837.53;;;-4.02;74.38
63946;BME280;50122;56.330;43.838;2022-12-16T17:41:40;101846.88;;;-4.06;75.19
63946;BME280;50122;56.330;43.838;2022-12-16T17:44:26;101843.31;;;-4.08;75.09
63946;BME280;50122;56.330;43.838;2022-12-16T17:47:11;101857.25;;;-4.04;75.93
63946;BME280;50122;56.330;43.838;2022-12-16T17:49:57;101846.72;;;-4.09;75.78
63946;BME280;50122;56.330;43.838;2022-12-16T17:52:42;101865.81;;;-4.05;76.01
63946;BME280;50122;56.330;43.838;2022-12-16T17:55:28;101861.47;;;-4.06;76.00
63946;BME280;50122;56.330;43.838;2022-12-16T17:58:14;101867.72;;;-4.01;76.08
63946;BME280;50122;56.330;43.838;2022-12-16T18:01:04;101866.97;;;-3.98;75.86
63946;BME280;50122;56.330;43.838;2022-12-16T18:03:50;101867.03;;;-3.97;75.42
63946;BME280;50122;56.330;43.838;2022-12-16T18:06:36;101850.13;;;-4.10;76.01
63946;BME280;50122;56.330;43.838;2022-12-16T18:09:21;101889.66;;;-3.91;75.81
63946;BME280;50122;56.330;43.838;2022-12-16T18:12:06;101874.38;;;-4.06;75.89
63946;BME280;50122;56.330;43.838;2022-12-16T18:14:52;101891.13;;;-3.96;76.16
63946;BME280;50122;56.330;43.838;2022-12-16T18:17:36;101895.63;;;-3.92;76.49
63946;BME280;50122;56.330;43.838;2022-12-16T18:20:23;101900.84;;;-3.91;76.59
63946;BME280;50122;56.330;43.838;2022-12-16T18:23:11;101882.06;;;-4.08;77.20
63946;BME280;50122;56.330;43.838;2022-12-16T18:26:01;101879.28;;;-4.12;76.49
63946;BME280;50122;56.330;43.838;2022-12-16T18:28:47;101899.91;;;-3.93;76.77
63946;BME280;50122;56.330;43.838;2022-12-16T18:31:32;101907.84;;;-3.88;76.73
63946;BME280;50122;56.330;43.838;2022-12-16T18:34:18;101912.88;;;-3.91;75.69
63946;BME280;50122;56.330;43.838;2022-12-16T18:37:04;101905.69;;;-3.98;76.15
63946;BME280;50122;56.330;43.838;2022-12-16T18:39:49;101916.09;;;-3.97;76.22
63946;BME280;50122;56.330;43.838;2022-12-16T18:42:34;101908.13;;;-4.02;76.59
63946;BME280;50122;56.330;43.838;2022-12-16T18:45:19;101886.78;;;-4.19;76.37
63946;BME280;50122;56.330;43.838;2022-12-16T18:48:05;101927.06;;;-4.03;76.10
63946;BME280;50122;56.330;43.838;2022-12-16T18:50:54;101925.34;;;-4.02;76.93
63946;BME280;50122;56.330;43.838;2022-12-16T18:53:40;101933.41;;;-3.94;76.76
63946;BME280;50122;56.330;43.838;2022-12-16T18:56:26;101931.59;;;-3.97;76.00
63946;BME280;50122;56.330;43.838;2022-12-16T18:59:13;101933.03;;;-4.04;76.10
63946;BME280;50122;56.330;43.838;2022-12-16T19:01:59;101927.00;;;-4.04;75.81
63946;BME280;50122;56.330;43.838;2022-12-16T19:04:44;101876.63;;;-4.35;76.56
63946;BME280;50122;56.330;43.838;2022-12-16T19:07:29;101942.59;;;-4.01;75.82
63946;BME280;50122;56.330;43.838;2022-12-16T19:10:15;101949.06;;;-4.11;75.59
63946;BME280;50122;56.330;43.838;2022-12-16T19:13:01;101955.34;;;-4.06;76.35
63946;BME280;50122;56.330;43.838;2022-12-16T19:15:53;101949.19;;;-4.08;76.22
63946;BME280;50122;56.330;43.838;2022-12-16T19:18:39;101942.34;;;-4.07;76.31
63946;BME280;50122;56.330;43.838;2022-12-16T19:21:25;101963.47;;;-3.96;76.10
63946;BME280;50122;56.330;43.838;2022-12-16T19:24:21;101954.72;;;-4.00;76.44
63946;BME280;50122;56.330;43.838;2022-12-16T19:27:07;101970.22;;;-4.00;76.29
63946;BME280;50122;56.330;43.838;2022-12-16T19:29:52;101976.94;;;-4.04;76.05
63946;BME280;50122;56.330;43.838;2022-12-16T19:32:36;101982.84;;;-4.06;76.03
63946;BME280;50122;56.330;43.838;2022-12-16T19:35:21;101973.34;;;-4.07;77.02
63946;BME280;50122;56.330;43.838;2022-12-16T19:38:13;101973.97;;;-4.13;76.14
63946;BME280;50122;56.330;43.838;2022-12-16T19:40:59;101981.72;;;-4.13;76.16
63946;BME280;50122;56.330;43.838;2022-12-16T19:43:45;101991.13;;;-4.13;76.26
63946;BME280;50122;56.330;43.838;2022-12-16T19:46:32;101989.28;;;-4.16;76.24
63946;BME280;50122;56.330;43.838;2022-12-16T19:49:17;101981.97;;;-4.26;76.48
63946;BME280;50122;56.330;43.838;2022-12-16T19:52:09;101971.38;;;-4.32;76.78
63946;BME280;50122;56.330;43.838;2022-12-16T19:54:55;101993.38;;;-4.21;76.91
63946;BME280;50122;56.330;43.838;2022-12-16T19:57:43;101995.09;;;-4.22;76.72
63946;BME280;50122;56.330;43.838;2022-12-16T20:00:29;102004.72;;;-4.18;76.79
63946;BME280;50122;56.330;43.838;2022-12-16T20:03:18;102005.13;;;-4.28;77.19
63946;BME280;50122;56.330;43.838;2022-12-16T20:06:06;102023.69;;;-4.17;77.49
63946;BME280;50122;56.330;43.838;2022-12-16T20:08:53;102033.41;;;-4.11;77.25
63946;BME280;50122;56.330;43.838;2022-12-16T20:11:38;102028.31;;;-4.10;77.64
63946;BME280;50122;56.330;43.838;2022-12-16T20:14:24;102042.84;;;-4.12;77.28
63946;BME280;50122;56.330;43.838;2022-12-16T20:17:10;102041.91;;;-4.14;76.89
63946;BME280;50122;56.330;43.838;2022-12-16T20:19:55;102034.75;;;-4.20;76.88
63946;BME280;50122;56.330;43.838;2022-12-16T20:22:42;102008.13;;;-4.38;77.20
63946;BME280;50122;56.330;43.838;2022-12-16T20:25:27;102062.63;;;-4.12;76.84
63946;BME280;50122;56.330;43.838;2022-12-16T20:28:13;102061.75;;;-4.13;76.31
63946;BME280;50122;56.330;43.838;2022-12-16T20:31:00;102069.34;;;-4.16;76.92
63946;BME280;50122;56.330;43.838;2022-12-16T20:33:56;102063.91;;;-4.22;76.15
63946;BME280;50122;56.330;43.838;2022-12-16T20:36:41;102076.59;;;-4.27;75.84
63946;BME280;50122;56.330;43.838;2022-12-16T20:39:27;102076.47;;;-4.30;76.15
63946;BME280;50122;56.330;43.838;2022-12-16T20:42:32;102071.09;;;-4.34;76.68
63946;BME280;50122;56.330;43.838;2022-12-16T20:45:19;102062.47;;;-4.35;77.10
63946;BME280;50122;56.330;43.838;2022-12-16T20:48:04;102076.28;;;-4.34;76.29
63946;BME280;50122;56.330;43.838;2022-12-16T20:50:57;102082.09;;;-4.39;76.15
63946;BME280;50122;56.330;43.838;2022-12-16T20:53:51;102077.41;;;-4.47;75.95
63946;BME280;50122;56.330;43.838;2022-12-16T20:56:37;102060.44;;;-4.60;76.30
63946;BME280;50122;56.330;43.838;2022-12-16T20:59:22;102063.41;;;-4.71;76.09
63946;BME280;50122;56.330;43.838;2022-12-16T21:02:11;102077.34;;;-4.67;76.96
63946;BME280;50122;56.330;43.838;2022-12-16T21:05:00;102069.44;;;-4.70;76.38
63946;BME280;50122;56.330;43.838;2022-12-16T21:07:46;102087.22;;;-4.76;76.62
63946;BME280;50122;56.330;43.838;2022-12-16T21:10:31;102100.72;;;-4.82;76.47
63946;BME280;50122;56.330;43.838;2022-12-16T21:13:17;102094.91;;;-4.78;77.02
63946;BME280;50122;56.330;43.838;2022-12-16T21:16:04;102094.91;;;-4.78;77.19
63946;BME280;50122;56.330;43.838;2022-12-16T21:18:50;102105.34;;;-4.75;77.34
63946;BME280;50122;56.330;43.838;2022-12-16T21:21:36;102117.19;;;-4.78;77.63
63946;BME280;50122;56.330;43.838;2022-12-16T21:24:22;102106.00;;;-4.79;77.90
63946;BME280;50122;56.330;43.838;2022-12-16T21:27:07;102118.53;;;-4.68;77.86
63946;BME280;50122;56.330;43.838;2022-12-16T21:29:53;102114.88;;;-4.74;77.30
63946;BME280;50122;56.330;43.838;2022-12-16T21:32:37;102124.28;;;-4.74;77.14
63946;BME280;50122;56.330;43.838;2022-12-16T21:35:23;102120.91;;;-4.73;77.31
63946;BME280;50122;56.330;43.838;2022-12-16T21:38:10;102122.69;;;-4.72;77.65
63946;BME280;50122;56.330;43.838;2022-12-16T21:40:56;102100.63;;;-4.83;78.06
63946;BME280;50122;56.330;43.838;2022-12-16T21:43:41;102125.47;;;-4.67;77.89
63946;BME280;50122;56.330;43.838;2022-12-16T21:46:28;102133.22;;;-4.67;77.80
63946;BME280;50122;56.330;43.838;2022-12-16T21:49:12;102126.28;;;-4.68;77.53
63946;BME280;50122;56.330;43.838;2022-12-16T21:51:59;102139.31;;;-4.65;76.99
63946;BME280;50122;56.330;43.838;2022-12-16T21:54:43;102131.09;;;-4.76;76.74
63946;BME280;50122;56.330;43.838;2022-12-16T21:57:30;102148.41;;;-4.74;77.11
63946;BME280;50122;56.330;43.838;2022-12-16T22:00:18;102156.81;;;-4.78;77.51
63946;BME280;50122;56.330;43.838;2022-12-16T22:03:04;102142.50;;;-4.89;77.54
63946;BME280;50122;56.330;43.838;2022-12-16T22:05:50;102174.28;;;-4.72;78.01
63946;BME280;50122;56.330;43.838;2022-12-16T22:08:35;102179.59;;;-4.69;77.60
63946;BME280;50122;56.330;43.838;2022-12-16T22:11:21;102173.69;;;-4.66;77.65
63946;BME280;50122;56.330;43.838;2022-12-16T22:14:07;102158.22;;;-4.66;77.85
63946;BME280;50122;56.330;43.838;2022-12-16T22:16:52;102165.78;;;-4.69;77.86
63946;BME280;50122;56.330;43.838;2022-12-16T22:19:38;102162.75;;;-4.61;77.78
63946;BME280;50122;56.330;43.838;2022-12-16T22:22:23;102125.53;;;-4.84;77.65
63946;BME280;50122;56.330;43.838;2022-12-16T22:25:09;102156.94;;;-4.75;77.50
63946;BME280;50122;56.330;43.838;2022-12-16T22:27:54;102154.00;;;-4.82;77.79
63946;BME280;50122;56.330;43.838;2022-12-16T22:30:40;102159.53;;;-4.75;77.72
63946;BME280;50122;56.330;43.838;2022-12-16T22:33:25;102165.19;;;-4.82;77.72
63946;BME280;50122;56.330;43.838;2022-12-16T22:36:12;102172.84;;;-4.83;77.94
63946;BME280;50122;56.330;43.838;2022-12-16T22:38:57;102195.41;;;-4.79;78.38
63946;BME280;50122;56.330;43.838;2022-12-16T22:41:42;102193.00;;;-4.76;78.03
63946;BME280;50122;56.330;43.838;2022-12-16T22:47:50;102191.13;;;-4.79;78.12
63946;BME280;50122;56.330;43.838;2022-12-16T22:50:35;102191.63;;;-4.86;78.15
63946;BME280;50122;56.330;43.838;2022-12-16T22:53:21;102203.88;;;-4.82;78.26
63946;BME280;50122;56.330;43.838;2022-12-16T22:56:07;102203.72;;;-4.85;78.11
63946;BME280;50122;56.330;43.838;2022-12-16T22:58:52;102212.50;;;-4.81;77.40
63946;BME280;50122;56.330;43.838;2022-12-16T23:01:37;102195.34;;;-4.81;77.36
63946;BME280;50122;56.330;43.838;2022-12-16T23:04:22;102193.41;;;-4.85;76.84
63946;BME280;50122;56.330;43.838;2022-12-16T23:07:08;102203.00;;;-4.82;77.03
63946;BME280;50122;56.330;43.838;2022-12-16T23:09:57;102189.34;;;-4.98;77.34
63946;BME280;50122;56.330;43.838;2022-12-16T23:12:42;102203.25;;;-4.94;77.33
63946;BME280;50122;56.330;43.838;2022-12-16T23:15:28;102214.06;;;-5.01;77.23
63946;BME280;50122;56.330;43.838;2022-12-16T23:18:13;102214.63;;;-5.07;77.64
63946;BME280;50122;56.330;43.838;2022-12-16T23:20:59;102208.69;;;-5.06;77.50
63946;BME280;50122;56.330;43.838;2022-12-16T23:23:44;102202.56;;;-5.08;77.52
63946;BME280;50122;56.330;43.838;2022-12-16T23:26:30;102199.84;;;-5.11;77.57
63946;BME280;50122;56.330;43.838;2022-12-16T23:29:15;102212.47;;;-5.16;77.79
63946;BME280;50122;56.330;43.838;2022-12-16T23:32:01;102214.03;;;-5.19;78.26
63946;BME280;50122;56.330;43.838;2022-12-16T23:34:46;102220.97;;;-5.18;78.33
63946;BME280;50122;56.330;43.838;2022-12-16T23:37:31;102219.25;;;-5.18;78.26
63946;BME280;50122;56.330;43.838;2022-12-16T23:40:15;102207.66;;;-5.26;78.52
63946;BME280;50122;56.330;43.838;2022-12-16T23:43:01;102222.06;;;-5.13;78.45
63946;BME280;50122;56.330;43.838;2022-12-16T23:45:46;102212.81;;;-5.10;78.54
63946;BME280;50122;56.330;43.838;2022-12-16T23:48:32;102203.00;;;-5.17;78.31
63946;BME280;50122;56.330;43.838;2022-12-16T23:51:17;102206.97;;;-5.06;78.15
63946;BME280;50122;56.330;43.838;2022-12-16T23:54:05;102219.00;;;-5.06;78.01
63946;BME280;50122;56.330;43.838;2022-12-16T23:56:50;102230.19;;;-5.06;78.26
63946;BME280;50122;56.330;43.838;2022-12-16T23:59:37;102227.44;;;-5.09;78.18
